Time;durP1;ratioP1;P1;durP2;ratioP2;P2;SDS_P1;SDS_P2;PMS_P1;PMS_P2;Temp;Humidity;BMP_temperature;BMP_pressure;BME280_temperature;BME280_humidity;BME280_pressure;Samples;Min_cycle;Max_cycle;Signal;HPM_P1;HPM_P2
2022/07/20 00:00:59;;;;;;;5.22;4.72;;;21.60;99.90;;;;;;5037940;28;20033;-72
2022/07/20 00:03:24;;;;;;;6.13;4.88;;;21.50;99.90;;;;;;5051309;28;20033;-72
2022/07/20 00:05:50;;;;;;;8.52;5.07;;;21.60;99.90;;;;;;5037771;28;20071;-72
2022/07/20 00:11:19;;;;;;;5.45;4.95;;;21.60;99.90;;;;;;5041803;28;20031;-73
2022/07/20 00:13:46;;;;;;;5.25;4.85;;;21.50;99.90;;;;;;5038683;28;20537;-72
2022/07/20 00:16:12;;;;;;;8.40;4.72;;;21.40;99.90;;;;;;5048314;28;20064;-72
2022/07/20 00:18:37;;;;;;;7.55;5.15;;;21.30;99.90;;;;;;5046984;28;20017;-72
2022/07/20 00:21:03;;;;;;;6.47;4.82;;;21.10;99.90;;;;;;5041369;28;20052;-72
2022/07/20 00:23:29;;;;;;;9.07;5.28;;;21.50;99.90;;;;;;5046283;28;20028;-72
2022/07/20 00:25:54;;;;;;;5.88;4.47;;;21.30;99.90;;;;;;5049445;28;20562;-72
2022/07/20 00:28:20;;;;;;;9.20;4.72;;;21.20;99.90;;;;;;5042681;28;20029;-72
2022/07/20 00:30:46;;;;;;;6.55;4.93;;;21.10;99.90;;;;;;5042161;28;20026;-72
2022/07/20 00:33:12;;;;;;;6.40;4.97;;;21.10;99.90;;;;;;5049647;28;20022;-72
2022/07/20 00:35:37;;;;;;;6.40;5.15;;;21.20;99.90;;;;;;5034914;28;20055;-72
2022/07/20 00:38:03;;;;;;;5.57;5.07;;;21.30;99.90;;;;;;5048574;28;20047;-72
2022/07/20 00:40:29;;;;;;;8.93;4.97;;;21.20;99.90;;;;;;5041037;28;20377;-72
2022/07/20 00:42:54;;;;;;;6.07;4.72;;;21.10;99.90;;;;;;5043897;28;20040;-72
2022/07/20 00:45:20;;;;;;;5.65;4.72;;;21.30;99.90;;;;;;5049103;28;20461;-72
2022/07/20 00:47:47;;;;;;;7.10;5.13;;;21.20;99.90;;;;;;5035127;28;20018;-72
2022/07/20 00:50:13;;;;;;;5.43;4.93;;;21.20;99.90;;;;;;5049196;28;20025;-72
2022/07/20 00:52:39;;;;;;;6.93;5.25;;;21.10;99.90;;;;;;5035003;28;20024;-72
2022/07/20 00:55:06;;;;;;;5.50;5.00;;;20.90;99.90;;;;;;5048474;28;20033;-72
2022/07/20 00:57:32;;;;;;;7.20;5.32;;;21.00;99.90;;;;;;5040738;28;20017;-72
2022/07/20 00:59:58;;;;;;;6.03;4.90;;;21.10;99.90;;;;;;5042999;28;20428;-72
2022/07/20 01:02:23;;;;;;;9.82;5.35;;;21.10;99.90;;;;;;5048856;28;20052;-72
2022/07/20 01:04:49;;;;;;;6.05;5.43;;;21.00;99.90;;;;;;5044352;28;20039;-72
2022/07/20 01:07:15;;;;;;;6.35;5.20;;;20.90;99.90;;;;;;5040611;28;20037;-72
2022/07/20 01:09:41;;;;;;;11.00;5.65;;;20.80;99.90;;;;;;5039560;28;20052;-72
2022/07/20 01:12:09;;;;;;;10.02;5.70;;;20.70;99.90;;;;;;5034647;28;20063;-72
2022/07/20 01:14:36;;;;;;;6.38;5.45;;;20.50;99.90;;;;;;5034662;28;20030;-72
2022/07/20 01:17:02;;;;;;;9.80;5.85;;;20.50;99.90;;;;;;5041298;28;20021;-72
2022/07/20 01:19:29;;;;;;;5.65;5.13;;;20.40;99.90;;;;;;5048736;28;20024;-72
2022/07/20 01:21:55;;;;;;;9.00;5.95;;;20.50;99.90;;;;;;5046203;28;20064;-72
2022/07/20 01:24:20;;;;;;;6.40;5.80;;;20.30;99.90;;;;;;5054411;28;20051;-72
2022/07/20 01:26:46;;;;;;;8.45;5.57;;;20.30;99.90;;;;;;5053424;28;20453;-72
2022/07/20 01:29:13;;;;;;;7.03;5.55;;;20.30;99.90;;;;;;5040233;28;20017;-72
2022/07/20 01:31:39;;;;;;;7.22;5.70;;;20.40;99.90;;;;;;5054249;28;20040;-72
2022/07/20 01:34:05;;;;;;;7.45;5.55;;;20.30;99.90;;;;;;5053947;28;20087;-72
2022/07/20 01:36:31;;;;;;;6.50;5.47;;;20.30;99.90;;;;;;5040125;28;20108;-72
2022/07/20 01:38:57;;;;;;;7.20;5.60;;;20.30;99.90;;;;;;5042494;28;20108;-72
2022/07/20 01:41:22;;;;;;;7.47;5.78;;;20.40;99.90;;;;;;5033987;28;20700;-72
2022/07/20 01:43:48;;;;;;;7.43;5.50;;;20.30;99.90;;;;;;5043728;28;20025;-72
2022/07/20 01:46:14;;;;;;;9.48;5.40;;;20.40;99.90;;;;;;5039862;28;20096;-72
2022/07/20 01:48:40;;;;;;;6.72;5.35;;;20.20;99.90;;;;;;5046845;28;20026;-72
2022/07/20 01:51:06;;;;;;;7.15;4.95;;;20.00;99.90;;;;;;5047139;28;20126;-72
2022/07/20 01:53:31;;;;;;;6.40;5.80;;;20.00;99.90;;;;;;5048632;28;20052;-72
2022/07/20 01:55:57;;;;;;;7.82;5.38;;;20.20;99.90;;;;;;5045032;28;20465;-72
2022/07/20 01:58:23;;;;;;;7.82;5.07;;;20.10;99.90;;;;;;5039743;28;20029;-72
2022/07/20 02:00:49;;;;;;;11.02;5.03;;;20.10;99.90;;;;;;5053588;28;20017;-72
2022/07/20 02:03:16;;;;;;;9.20;5.82;;;20.00;99.90;;;;;;5053564;28;20428;-72
2022/07/20 02:05:42;;;;;;;9.18;5.78;;;20.20;99.90;;;;;;5046232;28;20036;-72
2022/07/20 02:08:07;;;;;;;6.13;5.53;;;20.20;99.90;;;;;;5047020;28;20018;-72
2022/07/20 02:10:33;;;;;;;7.78;5.50;;;20.20;99.90;;;;;;5039477;28;20025;-72
2022/07/20 02:12:58;;;;;;;7.38;5.50;;;20.20;99.90;;;;;;5042012;28;20040;-72
2022/07/20 02:18:22;;;;;;;6.53;5.50;;;20.10;99.90;;;;;;5040923;28;20549;-72
2022/07/20 02:20:48;;;;;;;6.20;5.60;;;20.00;99.90;;;;;;5039180;28;20030;-72
2022/07/20 02:23:13;;;;;;;5.82;5.25;;;20.10;99.90;;;;;;5042454;28;20025;-72
2022/07/20 02:25:39;;;;;;;8.10;5.22;;;20.10;99.90;;;;;;5047339;28;20029;-72
2022/07/20 02:28:05;;;;;;;6.88;5.68;;;20.10;99.90;;;;;;5041857;28;20017;-72
2022/07/20 02:30:31;;;;;;;6.35;5.10;;;20.10;99.90;;;;;;5051057;28;20025;-72
2022/07/20 02:32:57;;;;;;;9.38;5.75;;;20.20;99.90;;;;;;5033021;28;20017;-72
2022/07/20 02:35:22;;;;;;;8.73;5.70;;;20.20;99.90;;;;;;5045501;28;20049;-72
2022/07/20 02:37:48;;;;;;;6.22;5.63;;;19.90;99.90;;;;;;5052827;28;20029;-72
2022/07/20 02:40:13;;;;;;;7.38;6.45;;;20.10;99.90;;;;;;5052798;28;20033;-72
2022/07/20 02:42:39;;;;;;;7.07;5.68;;;20.20;99.90;;;;;;5052854;28;20025;-72
2022/07/20 02:45:05;;;;;;;7.13;6.07;;;20.00;99.90;;;;;;5052841;28;20024;-72
2022/07/20 02:47:30;;;;;;;6.43;5.82;;;19.70;99.90;;;;;;5052671;28;20044;-72
2022/07/20 02:49:56;;;;;;;5.82;5.30;;;19.70;99.90;;;;;;5052749;28;20045;-72
2022/07/20 02:52:22;;;;;;;8.93;5.65;;;19.90;99.90;;;;;;5052655;28;20048;-72
2022/07/20 02:54:47;;;;;;;5.70;5.07;;;20.20;99.90;;;;;;5048050;28;20022;-72
2022/07/20 02:57:13;;;;;;;6.13;5.53;;;20.30;99.90;;;;;;5036469;28;20026;-72
2022/07/20 02:59:38;;;;;;;5.95;5.10;;;20.00;99.90;;;;;;5046581;28;20511;-71
2022/07/20 03:02:04;;;;;;;7.45;5.70;;;19.90;99.90;;;;;;5040960;28;20434;-72
2022/07/20 03:04:29;;;;;;;8.18;5.78;;;20.20;99.90;;;;;;5052035;28;20445;-72
2022/07/20 03:06:55;;;;;;;10.98;5.88;;;20.20;99.90;;;;;;5038877;28;20032;-72
2022/07/20 03:09:20;;;;;;;7.03;5.90;;;20.30;99.90;;;;;;5040214;28;20026;-72
2022/07/20 03:11:46;;;;;;;7.25;5.80;;;20.00;99.90;;;;;;5046373;28;20026;-72
2022/07/20 03:14:11;;;;;;;8.98;5.55;;;20.30;99.90;;;;;;5042584;28;20025;-72
2022/07/20 03:16:37;;;;;;;9.95;4.90;;;19.90;99.90;;;;;;5038265;28;20049;-72
2022/07/20 03:19:02;;;;;;;5.90;4.75;;;19.80;99.90;;;;;;5052204;28;20056;-72
2022/07/20 03:21:28;;;;;;;6.45;5.25;;;19.70;99.90;;;;;;5041940;28;20056;-72
2022/07/20 03:23:53;;;;;;;6.30;4.57;;;20.00;99.90;;;;;;5048373;28;20051;-72
2022/07/20 03:26:21;;;;;;;5.80;5.10;;;19.80;99.90;;;;;;5052171;28;20025;-72
2022/07/20 03:28:47;;;;;;;6.88;4.88;;;19.80;99.90;;;;;;5038751;28;20018;-72
2022/07/20 03:31:13;;;;;;;6.18;5.03;;;19.70;99.90;;;;;;5052233;28;20041;-72
2022/07/20 03:33:38;;;;;;;6.72;5.00;;;19.50;99.90;;;;;;5039138;28;20037;-72
2022/07/20 03:36:04;;;;;;;5.78;5.20;;;19.40;99.90;;;;;;5045875;28;20050;-72
2022/07/20 03:38:30;;;;;;;5.85;5.10;;;19.40;99.90;;;;;;5041087;28;20025;-72
2022/07/20 03:40:55;;;;;;;7.88;5.18;;;19.60;99.90;;;;;;5051923;28;20033;-72
2022/07/20 03:43:25;;;;;;;5.95;4.90;;;19.50;99.90;;;;;;5043631;28;20047;-73
2022/07/20 03:45:53;;;;;;;7.75;4.88;;;19.40;99.90;;;;;;5047261;28;20021;-73
2022/07/20 03:48:19;;;;;;;7.93;5.38;;;19.30;99.90;;;;;;5051920;28;20033;-73
2022/07/20 03:50:46;;;;;;;5.63;4.88;;;19.30;99.90;;;;;;5053899;28;20028;-73
2022/07/20 03:53:12;;;;;;;6.65;5.72;;;19.30;99.90;;;;;;5042003;28;20051;-73
2022/07/20 03:55:38;;;;;;;5.30;4.80;;;19.30;99.90;;;;;;5044522;28;20033;-72
2022/07/20 03:58:04;;;;;;;6.57;5.68;;;19.10;99.90;;;;;;5049960;28;20033;-72
2022/07/20 04:00:30;;;;;;;7.00;5.60;;;19.30;99.90;;;;;;5045497;28;20515;-73
2022/07/20 04:02:56;;;;;;;5.57;5.07;;;19.30;99.90;;;;;;5042065;28;20025;-73
2022/07/20 04:05:22;;;;;;;6.22;5.22;;;19.50;99.90;;;;;;5048373;28;20025;-73
2022/07/20 04:07:47;;;;;;;5.60;4.97;;;19.70;99.90;;;;;;5049416;28;20109;-74
2022/07/20 04:10:13;;;;;;;5.97;5.45;;;19.60;99.90;;;;;;5041695;28;20033;-73
2022/07/20 04:12:39;;;;;;;6.85;5.22;;;19.70;99.90;;;;;;5055754;28;20043;-73
2022/07/20 04:15:05;;;;;;;6.55;5.18;;;20.50;99.90;;;;;;5051938;28;20021;-73
2022/07/20 04:17:31;;;;;;;9.27;5.70;;;21.70;99.90;;;;;;5045385;28;20021;-73
2022/07/20 04:19:56;;;;;;;7.30;5.55;;;22.50;99.90;;;;;;5043720;28;20036;-72
2022/07/20 04:22:22;;;;;;;6.53;5.20;;;23.10;99.90;;;;;;5039266;28;20025;-72
2022/07/20 04:24:47;;;;;;;5.75;5.15;;;23.80;99.90;;;;;;5045832;28;20057;-72
2022/07/20 04:27:13;;;;;;;6.07;5.55;;;24.20;99.90;;;;;;5048236;28;20465;-73
2022/07/20 04:29:39;;;;;;;6.10;5.50;;;23.30;99.90;;;;;;5043063;28;20021;-72
2022/07/20 04:32:05;;;;;;;10.15;5.35;;;22.40;99.90;;;;;;5041948;28;20521;-72
2022/07/20 04:34:30;;;;;;;9.63;5.57;;;22.00;99.90;;;;;;5034236;28;20408;-72
2022/07/20 04:36:56;;;;;;;8.05;5.22;;;21.90;99.90;;;;;;5035295;28;20063;-72
2022/07/20 04:39:22;;;;;;;8.10;5.53;;;22.60;99.90;;;;;;5033895;28;20029;-72
2022/07/20 04:41:47;;;;;;;7.57;5.75;;;22.90;99.90;;;;;;5035204;28;20037;-72
2022/07/20 04:44:13;;;;;;;8.85;5.70;;;24.70;99.90;;;;;;5035078;28;20032;-72
2022/07/20 04:46:38;;;;;;;6.38;5.43;;;26.40;99.90;;;;;;5034990;28;20021;-72
2022/07/20 04:49:04;;;;;;;5.90;5.32;;;27.20;99.90;;;;;;5035030;28;20385;-73
2022/07/20 04:51:30;;;;;;;5.88;5.28;;;28.00;99.90;;;;;;5035149;28;20056;-72
2022/07/20 04:53:56;;;;;;;6.25;5.13;;;28.70;99.90;;;;;;5034471;28;20531;-73
2022/07/20 04:56:21;;;;;;;7.97;5.72;;;29.70;99.90;;;;;;5034807;28;20032;-72
2022/07/20 04:58:50;;;;;;;7.03;5.40;;;30.30;99.90;;;;;;5034963;28;20060;-72
2022/07/20 05:01:16;;;;;;;5.82;5.28;;;28.70;99.90;;;;;;5035215;28;20079;-73
2022/07/20 05:03:41;;;;;;;6.85;5.95;;;28.40;99.90;;;;;;5049759;28;20433;-73
2022/07/20 05:06:07;;;;;;;6.80;5.53;;;29.70;99.90;;;;;;5054646;28;20092;-73
2022/07/20 05:08:33;;;;;;;5.50;5.05;;;30.60;99.90;;;;;;5047248;28;20017;-72
2022/07/20 05:10:58;;;;;;;6.32;5.40;;;31.70;99.90;;;;;;5043426;28;20026;-73
2022/07/20 05:13:24;;;;;;;5.75;5.25;;;32.60;99.90;;;;;;5047397;28;20017;-72
2022/07/20 05:15:49;;;;;;;7.68;4.82;;;32.90;99.90;;;;;;5053491;28;20096;-73
2022/07/20 05:18:15;;;;;;;5.43;4.80;;;32.50;99.90;;;;;;5048589;28;20025;-73
2022/07/20 05:20:40;;;;;;;6.63;5.60;;;33.30;99.90;;;;;;5040307;28;20056;-73
2022/07/20 05:23:06;;;;;;;8.60;5.43;;;34.40;99.90;;;;;;5054415;28;20033;-73
2022/07/20 05:25:31;;;;;;;6.38;5.53;;;34.80;99.90;;;;;;5050822;28;20116;-73
2022/07/20 05:27:57;;;;;;;6.53;5.63;;;35.20;99.90;;;;;;5042573;28;20025;-73
2022/07/20 05:30:22;;;;;;;6.68;5.93;;;36.20;99.90;;;;;;5040230;28;20025;-73
2022/07/20 05:32:48;;;;;;;10.05;5.82;;;36.40;99.90;;;;;;5046979;28;20025;-73
2022/07/20 05:35:13;;;;;;;6.43;5.47;;;35.70;99.90;;;;;;5047345;28;20140;-73
2022/07/20 05:37:39;;;;;;;5.47;4.88;;;35.80;99.90;;;;;;5038894;28;20066;-73
2022/07/20 05:40:05;;;;;;;6.47;5.80;;;36.30;99.90;;;;;;5042601;28;20025;-73
2022/07/20 05:42:30;;;;;;;8.05;6.03;;;36.70;99.90;;;;;;5048579;28;20078;-73
2022/07/20 05:44:56;;;;;;;7.30;5.43;;;37.50;99.90;;;;;;5033990;28;20170;-73
2022/07/20 05:47:22;;;;;;;8.23;5.70;;;38.00;99.90;;;;;;5047941;28;20021;-73
2022/07/20 05:49:48;;;;;;;8.05;5.88;;;38.50;99.90;;;;;;5047128;28;20459;-73
2022/07/20 05:52:15;;;;;;;10.25;6.43;;;39.30;99.90;;;;;;5047001;28;20104;-73
2022/07/20 05:54:40;;;;;;;7.13;6.03;;;38.70;99.90;;;;;;5053780;28;20052;-73
2022/07/20 05:57:06;;;;;;;7.00;6.30;;;38.30;99.90;;;;;;5042724;28;20057;-73
2022/07/20 05:59:32;;;;;;;12.90;6.72;;;39.40;99.90;;;;;;5047735;28;20018;-73
2022/07/20 06:01:57;;;;;;;7.85;6.90;;;39.60;99.90;;;;;;5042475;28;20075;-73
2022/07/20 06:04:23;;;;;;;11.27;7.85;;;39.80;99.90;;;;;;5039575;28;20427;-73
2022/07/20 06:06:49;;;;;;;10.75;8.30;;;41.10;99.90;;;;;;5047129;28;20488;-73
2022/07/20 06:09:14;;;;;;;13.00;9.60;;;41.60;99.90;;;;;;5053465;28;20024;-74
2022/07/20 06:11:40;;;;;;;13.77;10.60;;;41.40;99.90;;;;;;5053198;28;20453;-74
2022/07/20 06:14:06;;;;;;;13.43;10.60;;;42.00;99.90;;;;;;5052854;28;20405;-74
2022/07/20 06:16:32;;;;;;;12.25;11.02;;;42.80;99.90;;;;;;5051092;28;20364;-74
2022/07/20 06:18:57;;;;;;;18.05;11.98;;;43.00;99.90;;;;;;5033276;28;20028;-74
2022/07/20 06:21:23;;;;;;;16.60;12.32;;;42.50;99.90;;;;;;5032850;28;20034;-74
2022/07/20 06:23:48;;;;;;;16.98;12.90;;;42.20;99.90;;;;;;5033129;28;20030;-74
2022/07/20 06:26:14;;;;;;;17.15;13.15;;;42.60;99.90;;;;;;5032934;28;20029;-74
2022/07/20 06:28:39;;;;;;;18.05;12.75;;;43.10;99.90;;;;;;5013989;28;20034;-74
2022/07/20 06:31:06;;;;;;;17.80;13.43;;;43.50;99.90;;;;;;5012946;28;20104;-72
2022/07/20 06:33:32;;;;;;;19.52;13.65;;;44.50;99.90;;;;;;5016675;28;20025;-73
2022/07/20 06:35:57;;;;;;;16.17;14.45;;;44.40;99.90;;;;;;5040614;28;20044;-73
2022/07/20 06:38:23;;;;;;;19.27;14.57;;;44.40;99.90;;;;;;5039233;28;20075;-73
2022/07/20 06:40:48;;;;;;;21.17;15.48;;;44.70;99.90;;;;;;5031299;28;20605;-73
2022/07/20 06:43:14;;;;;;;19.23;16.00;;;43.60;99.90;;;;;;5044422;28;20033;-73
2022/07/20 06:45:39;;;;;;;18.70;15.25;;;44.50;99.90;;;;;;5048741;28;20597;-73
2022/07/20 06:48:05;;;;;;;23.63;16.77;;;44.80;99.90;;;;;;5032741;28;20072;-73
2022/07/20 06:50:31;;;;;;;22.33;17.52;;;45.40;99.90;;;;;;5032581;28;20028;-73
2022/07/20 06:52:56;;;;;;;23.25;17.58;;;45.00;99.90;;;;;;5034122;28;20469;-73
2022/07/20 06:55:22;;;;;;;24.60;17.50;;;45.30;99.90;;;;;;5013151;28;20050;-73
2022/07/20 06:57:48;;;;;;;25.40;18.80;;;46.20;99.90;;;;;;5026101;28;20033;-73
2022/07/20 07:00:14;;;;;;;20.95;18.25;;;46.20;99.90;;;;;;5032246;28;20033;-73
2022/07/20 07:02:40;;;;;;;21.83;19.45;;;46.10;99.90;;;;;;5032475;28;20033;-74
2022/07/20 07:05:06;;;;;;;20.77;18.58;;;44.40;99.90;;;;;;5032575;28;20406;-73
2022/07/20 07:07:31;;;;;;;24.02;19.52;;;46.10;99.90;;;;;;5032487;28;20010;-73
2022/07/20 07:09:57;;;;;;;23.80;20.13;;;46.60;99.90;;;;;;5041975;28;20048;-73
2022/07/20 07:12:23;;;;;;;29.88;20.60;;;46.60;99.90;;;;;;5037531;28;20078;-73
2022/07/20 07:14:49;;;;;;;24.60;19.10;;;46.70;99.90;;;;;;5051796;28;20025;-73
2022/07/20 07:17:15;;;;;;;23.27;19.30;;;47.20;99.90;;;;;;5043657;28;20063;-73
2022/07/20 07:19:41;;;;;;;25.20;19.50;;;46.80;99.90;;;;;;5052250;28;20025;-73
2022/07/20 07:22:07;;;;;;;24.85;19.02;;;46.30;99.90;;;;;;5041762;28;20056;-73
2022/07/20 07:24:32;;;;;;;25.65;19.35;;;46.50;99.90;;;;;;5034169;28;20028;-73
2022/07/20 07:26:58;;;;;;;23.48;20.73;;;47.30;99.90;;;;;;5038034;28;20196;-73
2022/07/20 07:29:25;;;;;;;29.25;20.80;;;45.90;99.90;;;;;;5032156;28;20053;-73
2022/07/20 07:31:50;;;;;;;24.13;19.58;;;47.50;99.90;;;;;;5032207;28;20132;-73
2022/07/20 07:34:16;;;;;;;22.25;19.75;;;47.60;99.90;;;;;;5031787;28;20107;-73
2022/07/20 07:36:42;;;;;;;25.48;19.67;;;48.10;99.90;;;;;;5031809;28;20021;-73
2022/07/20 07:39:08;;;;;;;24.88;19.60;;;48.50;99.90;;;;;;5030795;28;20021;-75
2022/07/20 07:41:33;;;;;;;22.98;20.58;;;48.20;99.90;;;;;;5032238;28;20021;-75
2022/07/20 07:43:59;;;;;;;22.08;19.70;;;48.40;99.90;;;;;;5032038;28;20120;-75
2022/07/20 07:46:25;;;;;;;23.20;20.70;;;48.60;99.90;;;;;;5032255;28;20024;-75
2022/07/20 07:48:50;;;;;;;24.38;20.60;;;47.80;99.90;;;;;;5032070;28;20104;-75
2022/07/20 07:51:16;;;;;;;24.48;20.67;;;48.20;99.90;;;;;;5032099;28;20037;-75
2022/07/20 07:53:42;;;;;;;23.65;20.52;;;49.00;99.90;;;;;;5032067;28;20033;-75
2022/07/20 07:56:07;;;;;;;22.80;20.48;;;49.30;99.90;;;;;;5031787;28;20045;-74
2022/07/20 07:58:33;;;;;;;25.95;21.05;;;47.60;99.90;;;;;;5012374;28;20145;-73
2022/07/20 08:00:59;;;;;;;23.27;20.88;;;47.30;99.90;;;;;;5018926;28;20646;-73
2022/07/20 08:03:24;;;;;;;26.30;21.30;;;46.60;99.90;;;;;;5043182;28;20350;-74
2022/07/20 08:05:50;;;;;;;25.40;21.58;;;47.00;99.90;;;;;;5042696;28;20021;-74
2022/07/20 08:08:16;;;;;;;23.65;21.20;;;45.50;99.90;;;;;;5048137;28;20386;-74
2022/07/20 08:10:43;;;;;;;25.00;22.38;;;45.30;99.90;;;;;;5045665;28;20059;-73
2022/07/20 08:13:08;;;;;;;25.52;22.27;;;45.40;99.90;;;;;;5039489;28;20089;-73
2022/07/20 08:15:34;;;;;;;28.35;22.83;;;44.20;99.90;;;;;;5037902;28;20100;-74
2022/07/20 08:18:00;;;;;;;26.02;22.15;;;43.50;99.90;;;;;;5018200;28;20029;-74
2022/07/20 08:20:26;;;;;;;24.42;21.83;;;45.40;99.90;;;;;;5043311;28;20021;-73
2022/07/20 08:22:52;;;;;;;24.85;22.10;;;44.90;99.90;;;;;;5036247;28;20094;-73
2022/07/20 08:25:18;;;;;;;27.58;22.52;;;46.30;99.90;;;;;;5041863;28;20116;-73
2022/07/20 08:27:44;;;;;;;28.13;23.05;;;45.20;99.90;;;;;;5047566;28;20028;-74
2022/07/20 08:30:11;;;;;;;28.85;22.15;;;45.90;99.90;;;;;;5043646;28;20018;-73
2022/07/20 08:32:36;;;;;;;25.17;22.40;;;45.40;99.90;;;;;;5031582;28;20037;-74
2022/07/20 08:35:02;;;;;;;31.40;23.00;;;45.80;99.90;;;;;;5041706;28;20050;-74
2022/07/20 08:37:29;;;;;;;25.45;22.73;;;44.50;99.90;;;;;;5045831;28;20025;-73
2022/07/20 08:39:55;;;;;;;29.25;21.50;;;43.80;99.90;;;;;;5041346;28;20009;-73
2022/07/20 08:42:22;;;;;;;24.15;20.92;;;44.70;99.90;;;;;;5045540;28;20028;-74
2022/07/20 08:44:47;;;;;;;21.23;18.95;;;46.30;99.90;;;;;;5049125;28;20029;-73
2022/07/20 08:47:14;;;;;;;19.33;16.17;;;46.40;99.90;;;;;;5042848;28;20048;-73
2022/07/20 08:49:45;;;;;;;17.23;14.50;;;47.60;99.90;;;;;;5041022;28;20020;-73
2022/07/20 08:52:11;;;;;;;15.85;13.52;;;46.80;99.90;;;;;;5028534;28;20036;-73
2022/07/20 08:54:37;;;;;;;22.17;15.30;;;47.00;99.90;;;;;;5054305;28;20033;-73
2022/07/20 08:57:11;;;;;;;16.75;14.23;;;46.10;99.90;;;;;;5040765;28;20017;-74
2022/07/20 08:59:37;;;;;;;17.10;14.35;;;46.10;99.90;;;;;;5054891;28;20029;-73
2022/07/20 09:02:06;;;;;;;17.80;14.75;;;45.50;99.90;;;;;;5040728;28;20112;-73
2022/07/20 09:04:32;;;;;;;15.27;13.85;;;46.50;99.90;;;;;;5035409;28;20040;-73
2022/07/20 09:06:57;;;;;;;18.25;13.90;;;47.30;99.90;;;;;;5055217;28;20430;-74
2022/07/20 09:09:23;;;;;;;19.52;14.73;;;48.40;99.90;;;;;;5053621;28;20029;-74
2022/07/20 09:11:49;;;;;;;16.67;14.88;;;46.80;99.90;;;;;;5054665;28;20040;-73
2022/07/20 09:14:37;;;;;;;20.95;13.65;;;46.80;99.90;;;;;;5040452;28;20480;-73
2022/07/20 09:17:17;;;;;;;14.60;12.85;;;47.10;99.90;;;;;;5047066;28;20041;-73
2022/07/20 09:20:08;;;;;;;20.83;14.40;;;46.10;99.90;;;;;;5046235;28;20017;-74
2022/07/20 09:22:36;;;;;;;17.23;12.98;;;47.00;99.90;;;;;;5042986;28;20033;-75
2022/07/20 09:25:14;;;;;;;16.02;12.75;;;47.50;99.90;;;;;;5034497;28;20060;-73
2022/07/20 09:27:41;;;;;;;17.05;12.40;;;47.70;99.90;;;;;;5014835;28;20018;-74
2022/07/20 09:30:14;;;;;;;15.80;11.95;;;46.70;99.90;;;;;;5014636;28;20034;-74
2022/07/20 09:33:08;;;;;;;14.07;12.02;;;46.60;99.90;;;;;;5014712;28;20022;-75
2022/07/20 09:35:35;;;;;;;15.82;11.80;;;47.30;99.90;;;;;;5017260;28;20051;-75
2022/07/20 09:38:06;;;;;;;14.30;12.07;;;47.80;99.90;;;;;;5034240;28;20022;-74
2022/07/20 09:40:40;;;;;;;19.20;12.15;;;47.90;99.90;;;;;;5034320;28;20025;-74
2022/07/20 09:43:06;;;;;;;15.07;12.25;;;47.40;99.90;;;;;;5034308;28;20033;-75
2022/07/20 09:45:32;;;;;;;17.88;12.57;;;47.50;99.90;;;;;;5034143;28;20043;-75
2022/07/20 09:48:12;;;;;;;21.17;12.75;;;48.90;99.90;;;;;;5020081;28;20025;-74
2022/07/20 09:50:41;;;;;;;13.73;11.27;;;49.30;99.90;;;;;;5016082;28;20087;-73
2022/07/20 09:53:08;;;;;;;18.02;12.18;;;47.80;99.90;;;;;;5033332;28;20408;-73
2022/07/20 09:55:36;;;;;;;16.17;10.80;;;47.20;99.90;;;;;;5033623;28;20029;-73
2022/07/20 09:58:02;;;;;;;15.95;11.43;;;47.10;99.90;;;;;;5033593;28;20018;-73
2022/07/20 10:00:29;;;;;;;15.23;10.73;;;47.40;99.90;;;;;;5025295;28;20037;-73
2022/07/20 10:02:57;;;;;;;12.30;10.85;;;48.10;99.90;;;;;;5029178;28;20037;-74
2022/07/20 10:05:23;;;;;;;16.38;10.23;;;48.40;99.90;;;;;;5013863;28;20030;-73
2022/07/20 10:07:50;;;;;;;15.95;9.80;;;48.40;99.90;;;;;;5031717;28;20037;-74
2022/07/20 10:10:16;;;;;;;11.70;9.00;;;47.60;99.90;;;;;;5039422;28;20049;-73
2022/07/20 10:12:42;;;;;;;15.63;9.07;;;48.00;99.90;;;;;;5033148;28;20034;-73
2022/07/20 10:15:21;;;;;;;16.15;8.82;;;47.30;99.90;;;;;;5033167;28;20385;-73
2022/07/20 10:17:47;;;;;;;16.65;9.00;;;47.60;99.90;;;;;;5013288;28;20129;-74
2022/07/20 10:20:35;;;;;;;13.70;8.25;;;46.50;99.90;;;;;;5013371;28;20525;-74
2022/07/20 10:23:16;;;;;;;14.50;8.32;;;46.40;99.90;;;;;;5027553;28;20116;-73
2022/07/20 10:25:45;;;;;;;11.10;8.25;;;46.70;99.90;;;;;;5031895;28;20112;-73
2022/07/20 10:28:23;;;;;;;11.20;8.48;;;47.00;99.90;;;;;;5031835;28;20104;-73
2022/07/20 10:30:57;;;;;;;11.75;7.65;;;46.60;99.90;;;;;;5044755;28;20021;-73
2022/07/20 10:33:24;;;;;;;11.20;7.85;;;46.80;99.90;;;;;;5050485;28;20079;-73
2022/07/20 10:35:51;;;;;;;12.05;8.68;;;46.70;99.90;;;;;;5032860;28;20631;-73
2022/07/20 10:38:19;;;;;;;15.60;8.50;;;47.00;99.90;;;;;;5032953;28;20044;-74
2022/07/20 10:44:20;;;;;;;14.13;9.70;;;46.40;99.90;;;;;;5038567;28;20085;-73
2022/07/20 10:46:46;;;;;;;12.77;9.05;;;45.70;99.90;;;;;;5014273;28;20025;-73
2022/07/20 10:49:13;;;;;;;15.25;8.30;;;45.00;99.90;;;;;;5045838;28;20473;-73
2022/07/20 10:51:38;;;;;;;13.50;8.48;;;44.30;99.90;;;;;;5043491;28;20071;-73
2022/07/20 10:54:34;;;;;;;10.65;8.32;;;44.00;99.90;;;;;;5046708;28;20053;-73
2022/07/20 10:57:01;;;;;;;11.80;8.30;;;44.50;99.90;;;;;;5048370;28;20461;-73
2022/07/20 10:59:27;;;;;;;12.00;8.90;;;44.80;99.90;;;;;;5039874;28;20029;-73
2022/07/20 11:01:53;;;;;;;11.35;7.70;;;44.10;99.90;;;;;;5039229;28;20151;-73
2022/07/20 11:04:21;;;;;;;10.45;7.32;;;42.30;99.90;;;;;;5051988;28;20144;-73
2022/07/20 11:06:47;;;;;;;9.77;6.50;;;42.10;99.90;;;;;;5040849;28;20072;-73
2022/07/20 11:09:12;;;;;;;8.80;6.47;;;40.60;99.90;;;;;;5050052;28;20029;-73
2022/07/20 11:11:39;;;;;;;10.95;6.78;;;39.60;99.90;;;;;;5040559;28;20068;-73
2022/07/20 11:14:09;;;;;;;8.63;6.55;;;39.10;99.90;;;;;;5036276;28;20021;-73
2022/07/20 11:16:36;;;;;;;12.10;7.10;;;38.70;99.90;;;;;;5041922;28;20163;-73
2022/07/20 11:19:04;;;;;;;10.38;6.72;;;39.00;99.90;;;;;;5048194;28;20070;-73
2022/07/20 11:21:32;;;;;;;9.77;6.32;;;39.00;99.90;;;;;;5043181;28;20469;-73
2022/07/20 11:23:58;;;;;;;9.32;6.30;;;38.40;99.90;;;;;;5032091;28;20159;-73
2022/07/20 11:26:24;;;;;;;7.97;5.40;;;37.90;99.90;;;;;;5032196;28;20108;-73
2022/07/20 11:28:54;;;;;;;9.32;4.80;;;37.20;99.90;;;;;;5032388;28;20108;-73
2022/07/20 11:31:23;;;;;;;7.22;4.50;;;36.70;99.90;;;;;;5012448;28;20034;-73
2022/07/20 11:33:50;;;;;;;6.80;3.50;;;36.40;99.90;;;;;;5028510;28;20483;-73
2022/07/20 11:36:26;;;;;;;6.32;4.53;;;35.40;99.90;;;;;;5051914;28;20392;-73
2022/07/20 11:38:57;;;;;;;9.13;4.90;;;35.70;99.90;;;;;;5052141;28;20017;-73
2022/07/20 11:41:29;;;;;;;7.05;5.50;;;35.30;99.90;;;;;;5037877;28;20021;-73
2022/07/20 11:43:54;;;;;;;7.95;5.30;;;35.80;99.90;;;;;;5044933;28;20052;-73
2022/07/20 11:46:25;;;;;;;7.97;5.47;;;35.40;99.90;;;;;;5030285;28;20076;-73
2022/07/20 11:49:02;;;;;;;8.15;5.47;;;35.40;99.90;;;;;;5012332;28;20018;-73
2022/07/20 11:51:28;;;;;;;9.65;6.82;;;35.30;99.90;;;;;;5012226;28;20108;-73
2022/07/20 11:53:55;;;;;;;10.73;6.82;;;35.30;99.90;;;;;;5018618;28;20013;-73
2022/07/20 11:56:23;;;;;;;10.70;7.22;;;34.80;99.90;;;;;;5033690;28;20052;-75
2022/07/20 11:58:54;;;;;;;12.87;7.17;;;35.10;99.90;;;;;;5038337;28;20071;-73
2022/07/20 12:01:23;;;;;;;12.45;7.63;;;35.20;99.90;;;;;;5032652;28;20044;-72
2022/07/20 12:03:55;;;;;;;10.63;7.80;;;35.20;99.90;;;;;;5041582;28;20546;-73
2022/07/20 12:06:21;;;;;;;11.35;8.38;;;34.90;99.90;;;;;;5031904;28;20034;-73
2022/07/20 12:09:08;;;;;;;11.50;9.30;;;34.40;99.90;;;;;;5034216;28;20137;-73
2022/07/20 12:11:54;;;;;;;12.27;8.52;;;35.00;99.90;;;;;;5045083;28;20032;-73
2022/07/20 12:14:28;;;;;;;9.40;8.43;;;34.80;99.90;;;;;;5015666;28;20370;-73
2022/07/20 12:16:55;;;;;;;14.57;9.43;;;34.70;99.90;;;;;;5028446;28;20048;-73
2022/07/20 12:19:21;;;;;;;11.70;9.40;;;34.00;99.90;;;;;;5033166;28;20025;-73
2022/07/20 12:21:46;;;;;;;11.35;8.60;;;33.60;99.90;;;;;;5035420;28;20056;-73
2022/07/20 12:24:12;;;;;;;11.45;9.25;;;34.10;99.90;;;;;;5033854;28;20518;-73
2022/07/20 12:26:38;;;;;;;12.68;9.00;;;33.80;99.90;;;;;;5035282;28;20029;-73
2022/07/20 12:29:20;;;;;;;12.70;8.77;;;34.10;99.90;;;;;;5035299;28;20041;-73
2022/07/20 12:32:06;;;;;;;12.45;9.07;;;34.30;99.90;;;;;;5032034;28;20044;-74
2022/07/20 12:34:53;;;;;;;12.50;9.27;;;34.40;99.90;;;;;;5014699;28;20057;-72
2022/07/20 12:37:20;;;;;;;9.90;8.90;;;34.80;99.90;;;;;;5032441;28;20021;-72
2022/07/20 12:39:49;;;;;;;19.00;9.52;;;34.90;99.90;;;;;;5054889;28;20044;-72
2022/07/20 12:42:22;;;;;;;15.35;10.30;;;34.80;99.90;;;;;;5035082;28;20119;-73
2022/07/20 12:44:56;;;;;;;14.18;9.10;;;34.50;99.90;;;;;;5032187;28;20029;-73
2022/07/20 12:47:22;;;;;;;12.52;10.27;;;34.50;99.90;;;;;;5014660;28;20474;-73